createdAt,value
2022-09-23T00:00:49.325Z,70.93
2022-09-23T00:05:59.605Z,71.34
2022-09-23T00:11:08.695Z,71.57
2022-09-23T00:16:14.969Z,71.66
2022-09-23T00:21:16.812Z,72.12
2022-09-23T00:26:19.308Z,72.26
2022-09-23T00:31:22.619Z,72.22
2022-09-23T00:36:24.294Z,72.00
2022-09-23T00:41:26.010Z,72.23
2022-09-23T00:46:29.936Z,72.27
2022-09-23T00:51:34.428Z,72.25
2022-09-23T00:56:36.839Z,72.43
2022-09-23T01:01:38.791Z,72.28
2022-09-23T01:06:40.847Z,72.25
2022-09-23T01:12:05.092Z,72.13
2022-09-23T01:17:11.162Z,72.70
2022-09-23T01:22:15.424Z,72.50
2022-09-23T01:27:24.878Z,72.49
2022-09-23T01:32:34.386Z,72.28
2022-09-23T01:37:57.014Z,72.27
2022-09-23T01:43:04.313Z,72.10
2022-09-23T01:48:15.616Z,72.33
2022-09-23T01:53:24.081Z,72.62
2022-09-23T01:58:32.117Z,72.64
2022-09-23T02:03:55.733Z,72.42
2022-09-23T02:09:01.880Z,72.59
2022-09-23T02:14:16.595Z,72.34
2022-09-23T02:19:35.886Z,72.31
2022-09-23T02:24:38.323Z,72.16
2022-09-23T02:29:45.599Z,71.99
2022-09-23T02:34:53.364Z,72.15
2022-09-23T02:40:00.073Z,72.24
2022-09-23T02:45:01.379Z,72.33
2022-09-23T02:50:02.830Z,72.22
2022-09-23T02:55:05.698Z,72.09
2022-09-23T03:00:07.317Z,72.50
2022-09-23T03:05:08.585Z,72.32
2022-09-23T03:10:28.244Z,72.52
2022-09-23T03:15:32.269Z,72.63
2022-09-23T03:20:34.129Z,72.53
2022-09-23T03:25:38.266Z,72.79
2022-09-23T03:30:40.079Z,72.62
2022-09-23T03:36:20.328Z,72.69
2022-09-23T03:41:37.122Z,72.63
2022-09-23T03:46:38.575Z,72.34
2022-09-23T03:51:44.418Z,72.45
2022-09-23T03:56:47.749Z,72.55
2022-09-23T04:01:50.085Z,71.99
2022-09-23T04:06:51.523Z,72.60
2022-09-23T04:11:53.233Z,72.12
2022-09-23T04:16:54.613Z,72.06
2022-09-23T04:21:56.110Z,71.93
2022-09-23T04:26:57.509Z,71.85
2022-09-23T04:31:58.894Z,71.80
2022-09-23T04:37:00.237Z,71.67
2022-09-23T04:42:01.528Z,71.87
2022-09-23T04:47:04.159Z,72.24
2022-09-23T04:52:05.784Z,72.20
2022-09-23T04:57:07.134Z,72.29
2022-09-23T05:02:08.469Z,72.22
2022-09-23T05:07:10.416Z,72.27
2022-09-23T05:12:11.710Z,72.35
2022-09-23T05:17:12.987Z,72.66
2022-09-23T05:22:14.311Z,72.59
2022-09-23T05:27:15.597Z,72.92
2022-09-23T05:32:17.291Z,73.21
2022-09-23T05:37:18.566Z,72.92
2022-09-23T05:42:20.875Z,73.09
2022-09-23T05:47:22.162Z,73.15
2022-09-23T05:52:23.989Z,73.24
2022-09-23T05:57:25.258Z,73.38
2022-09-23T06:02:26.739Z,73.35
2022-09-23T06:07:28.053Z,73.41
2022-09-23T06:12:29.334Z,73.66
2022-09-23T06:17:30.615Z,73.52
2022-09-23T06:22:33.109Z,73.90
2022-09-23T06:27:36.335Z,73.97
2022-09-23T06:32:37.629Z,73.98
2022-09-23T06:37:38.896Z,74.29
2022-09-23T06:42:40.665Z,74.58
2022-09-23T06:47:42.353Z,74.53
2022-09-23T06:52:49.947Z,74.61
2022-09-23T06:57:51.224Z,74.81
2022-09-23T07:02:52.660Z,74.86
2022-09-23T07:07:54.533Z,74.80
2022-09-23T07:12:55.843Z,75.09
2022-09-23T07:17:57.295Z,75.22
2022-09-23T07:22:59.006Z,75.36
2022-09-23T07:28:00.827Z,75.64
2022-09-23T07:33:06.418Z,75.44
2022-09-23T07:38:14.163Z,75.93
2022-09-23T07:43:15.847Z,76.01
2022-09-23T07:48:17.235Z,76.07
2022-09-23T07:53:18.940Z,76.30
2022-09-23T07:58:20.767Z,75.95
2022-09-23T08:03:22.193Z,75.97
2022-09-23T08:08:23.556Z,76.17
2022-09-23T08:13:24.872Z,76.20
2022-09-23T08:18:26.298Z,76.01
2022-09-23T08:23:27.736Z,76.26
2022-09-23T08:28:29.069Z,76.62
2022-09-23T08:33:30.365Z,76.39
2022-09-23T08:38:31.957Z,76.13
2022-09-23T08:43:34.561Z,75.94
2022-09-23T08:48:43.734Z,75.55
2022-09-23T08:53:46.758Z,75.58
2022-09-23T08:59:07.441Z,75.19
2022-09-23T09:04:27.871Z,74.80
2022-09-23T09:09:36.061Z,74.40
2022-09-23T09:14:47.662Z,74.92
2022-09-23T09:19:53.294Z,74.23
2022-09-23T09:24:58.683Z,74.44
2022-09-23T09:30:01.194Z,74.84
2022-09-23T09:35:08.780Z,74.25
2022-09-23T09:40:13.512Z,74.48
2022-09-23T09:45:14.821Z,74.89
2022-09-23T09:50:23.614Z,75.10
2022-09-23T09:55:28.819Z,75.35
2022-09-23T10:00:30.091Z,75.46
2022-09-23T10:05:47.027Z,75.54
2022-09-23T10:11:11.444Z,74.57
2022-09-23T10:16:15.443Z,74.63
2022-09-23T10:21:26.918Z,74.25
2022-09-23T10:26:33.161Z,74.56
2022-09-23T10:31:35.507Z,74.24
2022-09-23T10:36:40.074Z,74.11
2022-09-23T10:42:09.561Z,73.66
2022-09-23T10:47:19.435Z,73.88
2022-09-23T10:52:31.801Z,73.68
2022-09-23T10:57:41.587Z,74.10
2022-09-23T11:03:01.648Z,73.51
2022-09-23T11:08:27.399Z,72.48
2022-09-23T11:13:58.900Z,73.12
2022-09-23T11:19:07.935Z,70.95
2022-09-23T11:24:39.457Z,70.15
2022-09-23T11:29:54.371Z,68.80
2022-09-23T11:35:02.599Z,70.11
2022-09-23T11:40:06.999Z,69.86
2022-09-23T11:45:15.046Z,68.37
2022-09-23T11:50:19.549Z,69.50
2022-09-23T11:55:24.706Z,70.43
2022-09-23T12:00:34.101Z,70.59
2022-09-23T12:05:39.675Z,71.18
2022-09-23T12:10:41.331Z,71.45
2022-09-23T12:16:05.771Z,71.15
2022-09-23T12:21:32.994Z,71.77
2022-09-23T12:26:38.992Z,71.17
2022-09-23T12:31:43.047Z,71.33
2022-09-23T12:36:46.954Z,71.29
2022-09-23T12:41:50.590Z,71.53
2022-09-23T12:47:11.818Z,71.38
2022-09-23T12:52:16.305Z,71.13
2022-09-23T12:57:33.508Z,69.98
2022-09-23T13:02:46.923Z,70.14
2022-09-23T13:07:49.892Z,69.49
2022-09-23T13:12:52.731Z,70.02
2022-09-23T13:18:13.999Z,70.22
2022-09-23T13:23:32.782Z,70.00
2022-09-23T13:28:38.108Z,70.16
2022-09-23T13:33:51.170Z,70.74
2022-09-23T13:38:52.454Z,70.71
2022-09-23T13:44:00.421Z,71.09
2022-09-23T13:49:02.827Z,71.56
2022-09-23T13:54:04.628Z,71.88
2022-09-23T13:59:24.766Z,72.08
2022-09-23T14:04:26.197Z,72.61
2022-09-23T14:09:28.963Z,72.14
2022-09-23T14:14:30.901Z,72.01
2022-09-23T14:19:32.524Z,71.80
2022-09-23T14:24:36.888Z,72.00
2022-09-23T14:29:39.611Z,72.12
2022-09-23T14:35:09.023Z,71.48
2022-09-23T14:40:13.192Z,71.46
2022-09-23T14:45:16.990Z,71.55
2022-09-23T14:50:43.508Z,71.95
2022-09-23T14:55:45.945Z,71.75
2022-09-23T15:00:51.635Z,71.48
2022-09-23T15:05:57.867Z,71.54
2022-09-23T15:11:07.640Z,71.79
2022-09-23T15:16:09.863Z,72.32
2022-09-23T15:21:12.878Z,71.85
2022-09-23T15:26:18.609Z,71.92
2022-09-23T15:31:20.962Z,71.89
2022-09-23T15:36:28.906Z,71.74
2022-09-23T15:41:33.340Z,71.62
2022-09-23T15:46:35.371Z,71.43
2022-09-23T15:51:38.168Z,71.41
2022-09-23T15:56:39.713Z,71.87
2022-09-23T16:01:41.837Z,72.03
2022-09-23T16:06:45.277Z,72.47
2022-09-23T16:11:47.850Z,72.72
2022-09-23T16:16:49.279Z,72.71
2022-09-23T16:21:50.587Z,72.88
2022-09-23T16:26:51.917Z,73.02
2022-09-23T16:31:53.780Z,72.97
2022-09-23T16:36:55.270Z,72.82
2022-09-23T16:41:57.333Z,73.13
2022-09-23T16:46:58.976Z,73.18
2022-09-23T16:52:01.562Z,73.19
2022-09-23T16:57:02.860Z,73.33
2022-09-23T17:02:27.231Z,73.18
2022-09-23T17:07:29.237Z,73.52
2022-09-23T17:12:33.462Z,73.54
2022-09-23T17:17:37.413Z,73.56
2022-09-23T17:22:38.760Z,73.46
2022-09-23T17:27:40.227Z,73.65
2022-09-23T17:32:42.035Z,73.38
2022-09-23T17:37:43.466Z,73.62
2022-09-23T17:42:45.506Z,73.37
2022-09-23T17:47:51.158Z,73.42
2022-09-23T17:52:52.566Z,73.38
2022-09-23T17:57:53.836Z,73.55
2022-09-23T18:02:55.124Z,73.51
2022-09-23T18:07:56.426Z,73.68
2022-09-23T18:12:57.742Z,73.29
2022-09-23T18:17:59.038Z,72.82
2022-09-23T18:23:00.437Z,72.99
2022-09-23T18:28:02.230Z,73.13
2022-09-23T18:33:04.018Z,73.18
2022-09-23T18:38:06.480Z,72.95
2022-09-23T18:43:08.722Z,72.90
2022-09-23T18:48:29.032Z,72.92
2022-09-23T18:53:31.844Z,72.65
2022-09-23T18:58:33.484Z,72.61
2022-09-23T19:03:35.954Z,72.48
2022-09-23T19:08:37.518Z,72.57
2022-09-23T19:13:39.603Z,72.37
2022-09-23T19:18:41.583Z,72.52
2022-09-23T19:23:47.629Z,72.32
2022-09-23T19:28:53.226Z,72.37
2022-09-23T19:33:58.686Z,71.95
2022-09-23T19:39:02.961Z,71.91
2022-09-23T19:44:07.168Z,71.70
2022-09-23T19:49:09.260Z,71.95
2022-09-23T19:54:11.997Z,72.16
2022-09-23T19:59:18.347Z,72.55
2022-09-23T20:04:21.121Z,72.22
2022-09-23T20:09:22.944Z,72.64
2022-09-23T20:14:27.232Z,72.82
2022-09-23T20:19:29.240Z,72.53
2022-09-23T20:24:30.690Z,72.73
2022-09-23T20:29:32.287Z,72.83
2022-09-23T20:34:33.781Z,72.91
2022-09-23T20:39:35.445Z,72.93
2022-09-23T20:44:37.022Z,72.84
2022-09-23T20:49:42.240Z,73.08
2022-09-23T20:54:44.060Z,73.10
2022-09-23T20:59:45.649Z,73.06
2022-09-23T21:04:47.055Z,72.65
2022-09-23T21:09:48.616Z,73.03
2022-09-23T21:14:49.963Z,72.97
2022-09-23T21:19:51.315Z,72.67
2022-09-23T21:25:26.339Z,73.06
2022-09-23T21:30:14.792Z,72.97
2022-09-23T21:35:18.758Z,73.20
2022-09-23T21:40:38.896Z,73.07
2022-09-23T21:45:43.061Z,73.25
2022-09-23T21:50:44.353Z,72.94
2022-09-23T21:55:48.718Z,72.83
2022-09-23T22:00:50.087Z,73.07
2022-09-23T22:06:01.361Z,72.79
2022-09-23T22:11:04.201Z,72.88
2022-09-23T22:16:05.987Z,72.25
2022-09-23T22:21:07.391Z,71.94
2022-09-23T22:26:08.782Z,71.41
2022-09-23T22:31:28.962Z,71.05
2022-09-23T22:36:30.310Z,70.92
2022-09-23T22:41:31.906Z,70.53
2022-09-23T22:46:35.018Z,70.11
2022-09-23T22:51:37.413Z,70.11
2022-09-23T22:56:38.818Z,70.08
2022-09-23T23:01:40.514Z,69.70
2022-09-23T23:06:42.698Z,69.55
2022-09-23T23:11:44.690Z,69.52
2022-09-23T23:16:46.403Z,69.27
2022-09-23T23:21:49.234Z,69.06
2022-09-23T23:26:51.555Z,68.37
2022-09-23T23:31:52.938Z,68.08
2022-09-23T23:36:57.357Z,68.05
2022-09-23T23:41:58.637Z,67.66
2022-09-23T23:46:59.938Z,67.91
2022-09-23T23:52:01.486Z,67.86
2022-09-23T23:57:02.833Z,67.98
